Time;durP1;ratioP1;P1;durP2;ratioP2;P2;SDS_P1;SDS_P2;PMS_P1;PMS_P2;Temp;Humidity;BMP_temperature;BMP_pressure;BME280_temperature;BME280_humidity;BME280_pressure;Samples;Min_cycle;Max_cycle;Signal;HPM_P1;HPM_P2
2021/04/11 00:00:13;;;;;;;21.05;14.57;;;8.60;99.90;;;;;;12359765;28;20921;-43
2021/04/11 00:06:14;;;;;;;21.40;15.25;;;8.60;99.90;;;;;;12350087;28;20054;-45
2021/04/11 00:12:15;;;;;;;19.23;14.07;;;8.60;99.90;;;;;;12359652;28;20050;-43
2021/04/11 00:18:17;;;;;;;20.33;14.02;;;8.60;99.90;;;;;;12347868;28;20120;-43
2021/04/11 00:24:18;;;;;;;16.83;13.57;;;8.60;99.90;;;;;;12360407;28;20041;-45
2021/04/11 00:30:20;;;;;;;15.45;11.82;;;8.60;99.90;;;;;;12364032;28;22615;-43
2021/04/11 00:36:22;;;;;;;14.68;10.93;;;8.60;99.90;;;;;;12354007;28;20450;-44
2021/04/11 00:42:32;;;;;;;16.05;11.43;;;8.70;99.90;;;;;;12364093;28;20463;-44
2021/04/11 00:48:35;;;;;;;13.73;10.10;;;8.70;99.90;;;;;;12368940;28;20446;-43
2021/04/11 00:54:37;;;;;;;15.75;10.27;;;8.60;99.90;;;;;;12373491;28;20099;-43
2021/04/11 01:00:39;;;;;;;12.15;9.35;;;8.70;99.90;;;;;;12370383;28;20081;-45
2021/04/11 01:06:49;;;;;;;12.00;10.10;;;8.70;99.90;;;;;;12372056;28;20054;-43
2021/04/11 01:12:51;;;;;;;15.63;10.32;;;8.70;99.90;;;;;;12374278;28;20084;-43
2021/04/11 01:18:53;;;;;;;14.25;10.10;;;8.60;99.90;;;;;;12369409;28;20058;-45
2021/04/11 01:24:58;;;;;;;14.45;10.15;;;8.60;99.90;;;;;;12364183;28;20058;-43
2021/04/11 01:31:05;;;;;;;12.43;10.07;;;8.60;99.90;;;;;;12361967;28;20579;-43
2021/04/11 01:37:10;;;;;;;14.02;10.27;;;8.50;99.90;;;;;;12369883;28;20494;-43
2021/04/11 01:43:12;;;;;;;14.48;10.07;;;8.50;99.90;;;;;;12370576;28;20677;-44
2021/04/11 01:49:14;;;;;;;17.90;10.88;;;8.50;99.90;;;;;;12360945;28;20053;-43
2021/04/11 01:55:16;;;;;;;12.70;9.60;;;8.40;99.90;;;;;;12367867;28;20038;-46
2021/04/11 02:01:24;;;;;;;14.95;9.30;;;8.50;99.90;;;;;;12374052;28;20077;-45
2021/04/11 02:07:26;;;;;;;12.32;8.57;;;8.50;99.90;;;;;;12364180;28;20050;-43
2021/04/11 02:13:30;;;;;;;12.52;8.45;;;8.50;99.90;;;;;;12359893;28;20141;-45
2021/04/11 02:19:31;;;;;;;13.90;8.85;;;8.50;99.90;;;;;;12359951;28;20058;-44
2021/04/11 02:25:39;;;;;;;13.13;8.52;;;8.50;99.90;;;;;;12365744;28;20402;-44
2021/04/11 02:31:41;;;;;;;16.23;9.45;;;8.50;99.90;;;;;;12365704;28;20082;-44
2021/04/11 02:37:45;;;;;;;14.73;9.30;;;8.50;99.90;;;;;;12363193;28;20197;-43
2021/04/11 02:43:47;;;;;;;13.73;9.37;;;8.50;99.90;;;;;;12365208;28;20502;-42
2021/04/11 02:49:51;;;;;;;13.57;8.88;;;8.50;99.90;;;;;;12360028;28;20103;-43
2021/04/11 02:55:54;;;;;;;12.35;8.68;;;8.60;99.90;;;;;;12360526;28;20128;-43
2021/04/11 03:01:56;;;;;;;13.05;8.23;;;8.70;99.90;;;;;;12363094;28;20046;-43
2021/04/11 03:08:02;;;;;;;14.13;8.43;;;8.70;99.90;;;;;;12368456;28;20057;-43
2021/04/11 03:14:07;;;;;;;12.32;7.85;;;8.70;99.90;;;;;;12361421;28;20100;-43
2021/04/11 03:20:17;;;;;;;12.52;7.60;;;8.70;99.90;;;;;;12365357;28;20256;-44
2021/04/11 03:26:24;;;;;;;11.60;7.95;;;8.70;99.90;;;;;;12368558;28;20694;-45
2021/04/11 03:32:45;;;;;;;11.90;7.25;;;8.70;99.90;;;;;;12362206;28;20549;-45
2021/04/11 03:38:47;;;;;;;11.02;7.25;;;8.70;99.90;;;;;;12363670;28;20046;-44
2021/04/11 03:44:52;;;;;;;10.85;7.15;;;8.70;99.90;;;;;;12359180;28;20104;-45
2021/04/11 03:51:00;;;;;;;11.20;6.90;;;8.70;99.90;;;;;;12364225;28;20482;-43
2021/04/11 03:57:10;;;;;;;11.60;6.70;;;8.70;99.90;;;;;;12359042;28;20064;-44
2021/04/11 04:03:14;;;;;;;8.38;6.18;;;8.80;99.90;;;;;;12367452;28;20046;-43
2021/04/11 04:09:15;;;;;;;9.60;6.45;;;8.80;99.90;;;;;;12367128;28;20046;-45
2021/04/11 04:15:34;;;;;;;10.02;6.65;;;8.70;99.90;;;;;;12367557;28;20101;-43
2021/04/11 04:22:01;;;;;;;10.60;7.13;;;8.80;99.90;;;;;;12371067;28;20753;-43
2021/04/11 04:28:13;;;;;;;18.55;10.48;;;8.70;99.90;;;;;;12373085;28;20104;-43
2021/04/11 04:34:52;;;;;;;16.42;10.95;;;8.60;99.90;;;;;;12369308;28;20053;-43
2021/04/11 04:40:54;;;;;;;14.25;10.10;;;8.50;99.90;;;;;;12378003;28;20038;-43
2021/04/11 04:47:18;;;;;;;11.95;8.35;;;8.50;99.90;;;;;;12378150;28;20046;-43
2021/04/11 04:53:37;;;;;;;13.10;8.70;;;8.60;99.90;;;;;;12363598;28;20712;-44
2021/04/11 04:59:59;;;;;;;9.75;7.25;;;8.60;99.90;;;;;;12375842;28;20049;-43
2021/04/11 05:06:24;;;;;;;14.65;7.32;;;8.60;99.90;;;;;;12370363;28;20062;-43
2021/04/11 05:12:50;;;;;;;9.55;6.07;;;8.70;99.90;;;;;;12370891;28;20099;-42
2021/04/11 05:18:57;;;;;;;10.88;6.05;;;8.70;99.90;;;;;;12371963;28;20054;-43
2021/04/11 05:25:12;;;;;;;8.40;5.75;;;8.70;99.90;;;;;;12369739;28;20061;-43
2021/04/11 05:31:19;;;;;;;8.35;5.53;;;8.60;99.90;;;;;;12361400;28;20050;-43
2021/04/11 05:37:26;;;;;;;8.85;5.30;;;8.70;99.90;;;;;;12369617;28;20097;-43
2021/04/11 05:43:41;;;;;;;7.93;6.07;;;8.70;99.90;;;;;;12368889;28;20057;-43
2021/04/11 05:49:54;;;;;;;9.00;6.50;;;8.70;99.90;;;;;;12367243;28;20054;-43
2021/04/11 05:56:00;;;;;;;11.88;6.72;;;8.70;99.90;;;;;;12366778;28;20084;-43
2021/04/11 06:02:03;;;;;;;10.10;6.57;;;8.70;99.90;;;;;;12366950;28;20042;-43
2021/04/11 06:08:25;;;;;;;10.35;7.40;;;8.70;99.90;;;;;;12360686;28;20089;-43
2021/04/11 06:14:51;;;;;;;10.55;7.00;;;8.80;99.90;;;;;;12365653;28;20142;-43
2021/04/11 06:20:54;;;;;;;7.60;5.50;;;9.00;99.90;;;;;;12367863;28;20046;-43
2021/04/11 06:27:12;;;;;;;7.70;6.20;;;9.20;99.90;;;;;;12354517;28;20096;-45
2021/04/11 06:33:24;;;;;;;6.78;5.53;;;9.40;99.90;;;;;;12357411;28;20047;-43
2021/04/11 06:39:32;;;;;;;7.13;5.53;;;9.40;99.90;;;;;;12361913;28;20607;-43
2021/04/11 06:45:43;;;;;;;6.70;5.20;;;9.40;99.90;;;;;;12360502;28;20454;-43
2021/04/11 06:52:13;;;;;;;8.20;4.72;;;9.50;99.90;;;;;;12364228;28;20458;-44
2021/04/11 06:59:00;;;;;;;7.07;4.53;;;9.70;99.90;;;;;;12364362;28;20072;-43
2021/04/11 07:05:28;;;;;;;3.95;3.50;;;9.80;99.90;;;;;;12368006;28;20490;-43
2021/04/11 07:11:55;;;;;;;6.03;3.50;;;9.70;99.90;;;;;;12366918;28;20479;-43
2021/04/11 07:18:33;;;;;;;3.88;2.90;;;9.70;99.90;;;;;;12366129;28;20046;-44
2021/04/11 07:24:48;;;;;;;3.10;2.22;;;10.00;99.90;;;;;;12350942;28;20235;-43
2021/04/11 07:30:58;;;;;;;5.60;2.90;;;10.00;99.90;;;;;;12367342;28;20385;-43
2021/04/11 07:37:26;;;;;;;3.88;3.00;;;9.90;99.90;;;;;;12361264;28;20056;-44
2021/04/11 07:44:08;;;;;;;4.25;3.08;;;9.90;99.90;;;;;;12366068;28;20445;-44
2021/04/11 07:50:27;;;;;;;5.32;3.85;;;9.60;99.90;;;;;;12364017;28;20056;-43
2021/04/11 07:57:12;;;;;;;5.10;4.00;;;9.30;99.90;;;;;;12365050;28;20101;-44
2021/04/11 08:03:32;;;;;;;4.22;3.33;;;9.10;99.90;;;;;;12366378;28;21343;-47
2021/04/11 08:09:49;;;;;;;5.30;4.03;;;9.00;99.90;;;;;;12365939;28;20682;-44
2021/04/11 08:16:28;;;;;;;5.88;4.30;;;8.70;99.90;;;;;;12360894;28;20042;-43
2021/04/11 08:22:44;;;;;;;5.90;4.43;;;8.60;99.90;;;;;;12363711;28;20153;-43
2021/04/11 08:29:25;;;;;;;4.15;3.22;;;8.20;99.90;;;;;;12354510;28;20047;-42
2021/04/11 08:35:57;;;;;;;5.90;4.88;;;7.90;99.90;;;;;;12364535;28;20092;-43
2021/04/11 08:42:26;;;;;;;9.98;7.65;;;7.70;99.90;;;;;;12354506;28;20458;-43
2021/04/11 08:48:37;;;;;;;9.40;7.63;;;7.30;99.90;;;;;;12361631;28;20050;-42
2021/04/11 08:55:15;;;;;;;9.35;7.55;;;7.20;99.90;;;;;;12356419;28;20523;-43
2021/04/11 09:01:33;;;;;;;10.48;7.88;;;7.20;99.90;;;;;;12366490;28;20108;-43
2021/04/11 09:07:50;;;;;;;8.45;6.43;;;7.30;99.90;;;;;;12377448;28;20247;-43
2021/04/11 09:14:17;;;;;;;8.68;6.22;;;7.00;99.90;;;;;;12370467;28;20513;-43
2021/04/11 09:20:39;;;;;;;9.48;6.72;;;7.00;99.90;;;;;;12373084;28;20089;-44
2021/04/11 09:27:08;;;;;;;8.98;6.70;;;7.00;99.90;;;;;;12371354;28;20046;-43
2021/04/11 09:33:24;;;;;;;9.95;8.07;;;7.00;99.90;;;;;;12365444;28;20089;-45
2021/04/11 09:39:56;;;;;;;13.07;7.97;;;6.90;99.90;;;;;;12372398;28;20128;-42
2021/04/11 09:46:22;;;;;;;10.43;7.40;;;7.00;99.90;;;;;;12372855;28;20098;-44
2021/04/11 09:52:42;;;;;;;8.15;6.03;;;6.90;99.90;;;;;;12367907;28;20046;-44
2021/04/11 09:59:07;;;;;;;8.20;6.00;;;6.90;99.90;;;;;;12366053;28;20042;-43
2021/04/11 10:05:31;;;;;;;8.02;5.97;;;6.60;99.90;;;;;;12366535;28;20043;-43
2021/04/11 10:11:51;;;;;;;8.18;6.72;;;6.60;99.90;;;;;;12367145;28;20489;-44
2021/04/11 10:18:24;;;;;;;8.52;6.07;;;6.50;99.90;;;;;;12367973;28;20046;-42
2021/04/11 10:24:44;;;;;;;9.23;6.15;;;6.50;99.90;;;;;;12366419;28;20042;-44
2021/04/11 10:31:00;;;;;;;8.52;6.32;;;6.30;99.90;;;;;;12367422;28;20129;-42
2021/04/11 10:37:27;;;;;;;6.47;5.05;;;6.30;99.90;;;;;;12367837;28;20081;-42
2021/04/11 10:43:49;;;;;;;6.00;4.95;;;6.20;99.90;;;;;;12367515;28;20047;-44
2021/04/11 10:50:13;;;;;;;8.57;5.90;;;6.20;99.90;;;;;;12362947;28;20141;-43
2021/04/11 10:56:52;;;;;;;9.07;6.35;;;6.00;99.90;;;;;;12369607;28;20544;-42
2021/04/11 11:03:16;;;;;;;9.38;6.32;;;5.80;99.90;;;;;;12367569;28;20522;-42
2021/04/11 11:09:37;;;;;;;11.70;7.45;;;5.80;99.90;;;;;;12365279;28;20049;-42
2021/04/11 11:15:41;;;;;;;10.68;7.47;;;5.80;99.90;;;;;;12368225;28;20922;-42
2021/04/11 11:22:00;;;;;;;10.73;7.47;;;5.80;99.90;;;;;;12367334;28;20119;-44
2021/04/11 11:28:31;;;;;;;9.38;6.25;;;5.80;99.90;;;;;;12365844;28;20124;-42
2021/04/11 11:34:51;;;;;;;9.82;6.05;;;5.70;99.90;;;;;;12363090;28;20069;-44
2021/04/11 11:41:14;;;;;;;9.27;4.90;;;5.70;99.90;;;;;;12364779;28;20042;-43
2021/04/11 11:47:49;;;;;;;7.32;4.55;;;5.60;99.90;;;;;;12361476;28;20116;-42
2021/04/11 11:54:40;;;;;;;6.45;3.47;;;5.60;99.90;;;;;;12358129;28;20050;-43
2021/04/11 12:00:55;;;;;;;4.90;2.78;;;5.60;99.90;;;;;;12352751;28;20045;-42
2021/04/11 12:06:57;;;;;;;;;;;5.90;99.90;;;;;;12363906;28;20054;-42
2021/04/11 12:13:17;;;;;;;2.95;1.92;;;6.00;99.90;;;;;;12363914;28;19933;-42
2021/04/11 12:19:19;;;;;;;3.72;2.17;;;5.80;99.90;;;;;;12366135;28;20124;-45
2021/04/11 12:25:25;;;;;;;4.00;2.58;;;5.60;99.90;;;;;;12366494;28;20118;-42
2021/04/11 12:31:48;;;;;;;4.07;2.65;;;5.60;99.90;;;;;;12363251;28;20060;-42
2021/04/11 12:38:08;;;;;;;3.15;2.20;;;5.80;99.90;;;;;;12373431;28;20311;-43
2021/04/11 12:44:27;;;;;;;4.47;2.33;;;6.00;99.90;;;;;;12376395;28;20788;-43
2021/04/11 12:51:07;;;;;;;3.08;2.20;;;5.70;99.90;;;;;;12373053;28;20050;-42
2021/04/11 12:57:22;;;;;;;4.63;2.67;;;5.50;99.90;;;;;;12368442;28;20115;-43
2021/04/11 13:03:28;;;;;;;4.22;2.55;;;5.40;99.90;;;;;;12365515;28;20105;-42
2021/04/11 13:09:44;;;;;;;6.40;3.42;;;5.50;99.90;;;;;;12373658;28;20049;-42
2021/04/11 13:16:15;;;;;;;7.15;3.22;;;5.50;99.90;;;;;;12367422;28;20132;-42
2021/04/11 13:22:26;;;;;;;3.83;2.97;;;5.40;99.90;;;;;;12370739;28;20043;-42
2021/04/11 13:28:35;;;;;;;8.57;4.20;;;5.20;99.90;;;;;;12365172;28;20046;-42
2021/04/11 13:34:52;;;;;;;7.28;3.47;;;5.20;99.90;;;;;;12370884;28;20046;-44
2021/04/11 13:41:18;;;;;;;5.38;2.83;;;5.30;99.90;;;;;;12370378;28;20051;-42
2021/04/11 13:47:32;;;;;;;4.60;2.80;;;5.30;99.90;;;;;;12370726;28;20054;-42
2021/04/11 13:53:50;;;;;;;9.57;1.60;;;5.20;99.90;;;;;;12365683;28;20161;-43
2021/04/11 14:00:01;;;;;;;4.72;1.60;;;5.00;99.90;;;;;;12362473;28;20058;-43
2021/04/11 14:06:10;;;;;;;3.75;1.88;;;5.10;99.90;;;;;;12362609;28;20050;-43
2021/04/11 14:12:32;;;;;;;5.13;1.90;;;5.00;99.90;;;;;;12356564;28;20512;-44
2021/04/11 14:18:36;;;;;;;6.03;1.95;;;4.80;99.90;;;;;;12367382;28;20555;-44
2021/04/11 14:24:49;;;;;;;4.97;2.85;;;4.80;99.90;;;;;;12368831;28;20089;-43
2021/04/11 14:31:13;;;;;;;6.30;2.33;;;4.80;99.90;;;;;;12367295;28;20070;-42
2021/04/11 14:37:46;;;;;;;6.73;2.20;;;4.70;99.90;;;;;;12364088;28;20145;-43
2021/04/11 14:43:55;;;;;;;4.65;1.77;;;4.80;99.90;;;;;;12345977;28;20078;-42
2021/04/11 14:50:28;;;;;;;6.15;1.90;;;5.00;99.90;;;;;;12361918;28;20045;-43
2021/04/11 14:56:56;;;;;;;5.40;1.65;;;5.10;99.90;;;;;;12350909;28;20054;-44
2021/04/11 15:03:08;;;;;;;4.15;1.63;;;5.20;99.90;;;;;;12359708;28;20510;-42
2021/04/11 15:09:21;;;;;;;3.60;1.67;;;5.20;99.90;;;;;;12362334;28;20127;-42
2021/04/11 15:15:42;;;;;;;4.35;1.67;;;5.20;99.90;;;;;;12360799;28;20042;-42
2021/04/11 15:22:06;;;;;;;4.55;1.50;;;5.20;99.90;;;;;;12358134;28;20046;-42
2021/04/11 15:28:23;;;;;;;8.63;1.90;;;5.20;99.90;;;;;;12363395;28;20046;-43
2021/04/11 15:34:48;;;;;;;4.28;1.58;;;5.20;99.90;;;;;;12357668;28;20050;-43
2021/04/11 15:40:51;;;;;;;5.97;1.67;;;5.00;99.90;;;;;;12365217;28;20529;-43
2021/04/11 15:47:04;;;;;;;3.85;1.52;;;5.10;99.90;;;;;;12365899;28;20046;-42
2021/04/11 15:53:56;;;;;;;7.07;2.20;;;5.10;99.90;;;;;;12362633;28;20640;-42
2021/04/11 16:00:04;;;;;;;5.82;1.80;;;5.40;99.90;;;;;;12362964;28;20093;-43
2021/04/11 16:06:12;;;;;;;7.28;2.00;;;5.80;99.90;;;;;;12363767;28;21060;-43
2021/04/11 16:12:29;;;;;;;7.10;1.70;;;5.60;99.90;;;;;;12372697;28;20054;-43
2021/04/11 16:19:06;;;;;;;5.88;1.65;;;5.70;99.90;;;;;;12373601;28;20058;-43
2021/04/11 16:25:30;;;;;;;6.40;1.65;;;5.50;99.90;;;;;;12365100;28;20050;-42
2021/04/11 16:31:41;;;;;;;5.78;1.83;;;5.70;99.90;;;;;;12366642;28;20070;-45
2021/04/11 16:37:58;;;;;;;6.90;1.98;;;5.70;99.90;;;;;;12374887;28;20515;-44
2021/04/11 16:44:21;;;;;;;6.57;1.27;;;5.80;99.90;;;;;;12365642;28;20050;-44
2021/04/11 16:50:31;;;;;;;5.40;1.30;;;5.70;99.90;;;;;;12370636;28;20476;-42
2021/04/11 16:56:41;;;;;;;3.45;1.30;;;5.60;99.90;;;;;;12362499;28;20082;-43
2021/04/11 17:02:43;;;;;;;5.22;1.40;;;5.50;99.90;;;;;;12364546;28;20085;-44
2021/04/11 17:09:10;;;;;;;3.05;1.38;;;5.60;99.90;;;;;;12370592;28;20054;-43
2021/04/11 17:15:16;;;;;;;8.82;1.88;;;5.50;99.90;;;;;;12365862;28;20045;-42
2021/04/11 17:21:25;;;;;;;3.42;1.35;;;5.50;99.90;;;;;;12362743;28;20054;-42
2021/04/11 17:27:37;;;;;;;3.97;1.15;;;5.40;99.90;;;;;;12366327;28;20180;-44
2021/04/11 17:33:44;;;;;;;3.15;0.82;;;5.30;99.90;;;;;;12361301;28;20042;-43
2021/04/11 17:39:48;;;;;;;6.00;1.42;;;5.10;99.90;;;;;;12367825;28;26004;-43
2021/04/11 17:46:20;;;;;;;2.93;1.40;;;5.30;99.90;;;;;;12361736;28;20112;-42
2021/04/11 17:52:41;;;;;;;4.35;1.10;;;5.10;99.90;;;;;;12361450;28;20043;-42
2021/04/11 17:58:56;;;;;;;2.70;1.30;;;5.20;99.90;;;;;;12362256;28;20051;-42
2021/04/11 18:05:30;;;;;;;5.80;1.38;;;5.20;99.90;;;;;;12357048;28;20050;-42
2021/04/11 18:11:44;;;;;;;5.55;1.30;;;5.10;99.90;;;;;;12357029;28;20042;-42
2021/04/11 18:17:51;;;;;;;4.65;1.42;;;5.10;99.90;;;;;;12367103;28;20100;-42
2021/04/11 18:23:57;;;;;;;5.22;2.03;;;5.10;99.90;;;;;;12366020;28;20050;-43
2021/04/11 18:30:12;;;;;;;4.78;1.52;;;5.10;99.90;;;;;;12360002;28;20085;-42
2021/04/11 18:36:41;;;;;;;10.18;4.32;;;5.00;99.90;;;;;;12359295;28;20077;-43
2021/04/11 18:43:01;;;;;;;5.03;2.10;;;4.90;99.90;;;;;;12356395;28;20125;-44
2021/04/11 18:49:40;;;;;;;4.55;1.90;;;4.90;99.90;;;;;;12360674;28;20162;-42
2021/04/11 18:55:48;;;;;;;9.02;2.28;;;4.90;99.90;;;;;;12367509;28;20415;-42
2021/04/11 19:02:09;;;;;;;7.03;2.63;;;5.00;99.90;;;;;;12364932;28;20146;-43
2021/04/11 19:08:39;;;;;;;9.38;2.80;;;4.90;99.90;;;;;;12364656;28;20045;-43
2021/04/11 19:15:22;;;;;;;6.63;2.28;;;4.80;99.90;;;;;;12368210;28;20395;-42
2021/04/11 19:21:52;;;;;;;4.15;1.60;;;4.80;99.90;;;;;;12361744;28;20808;-44
2021/04/11 19:28:20;;;;;;;4.78;1.70;;;4.80;99.90;;;;;;12367786;28;20387;-42
2021/04/11 19:34:58;;;;;;;7.10;1.77;;;4.80;99.90;;;;;;12369571;28;20046;-42
2021/04/11 19:41:32;;;;;;;3.40;1.85;;;4.80;99.90;;;;;;12358555;28;20061;-42
2021/04/11 19:48:05;;;;;;;5.70;1.40;;;4.80;99.90;;;;;;12363024;28;20109;-42
2021/04/11 19:54:19;;;;;;;4.55;1.45;;;4.80;99.90;;;;;;12364067;28;20056;-43
2021/04/11 20:00:44;;;;;;;2.93;1.40;;;4.80;99.90;;;;;;12369169;28;20054;-43
2021/04/11 20:07:15;;;;;;;5.20;1.50;;;4.80;99.90;;;;;;12364048;28;20046;-42
2021/04/11 20:13:41;;;;;;;3.97;1.63;;;4.70;99.90;;;;;;12363406;28;20107;-42
2021/04/11 20:20:19;;;;;;;3.20;1.58;;;4.80;99.90;;;;;;12363084;28;20707;-42
2021/04/11 20:26:46;;;;;;;4.47;1.67;;;4.70;99.90;;;;;;12365984;28;20046;-43
2021/04/11 20:33:09;;;;;;;5.10;2.03;;;4.80;99.90;;;;;;12355540;28;20137;-42
2021/04/11 20:39:13;;;;;;;7.10;1.90;;;4.60;99.90;;;;;;12352782;28;20056;-42
2021/04/11 20:45:24;;;;;;;3.88;1.65;;;4.60;99.90;;;;;;12348837;28;20108;-42
2021/04/11 20:51:32;;;;;;;3.20;1.20;;;4.60;99.90;;;;;;12356529;28;20076;-42
2021/04/11 20:58:18;;;;;;;4.85;1.10;;;4.50;99.90;;;;;;12358986;28;20045;-43
2021/04/11 21:04:48;;;;;;;4.75;1.40;;;4.40;99.90;;;;;;12345757;28;20541;-42
2021/04/11 21:11:09;;;;;;;5.60;1.73;;;4.40;99.90;;;;;;12360561;28;20053;-43
2021/04/11 21:17:27;;;;;;;3.33;1.30;;;4.40;99.90;;;;;;12360875;28;20973;-42
2021/04/11 21:24:02;;;;;;;4.90;1.50;;;4.30;99.90;;;;;;12361273;28;20054;-42
2021/04/11 21:30:38;;;;;;;4.57;1.35;;;4.30;99.90;;;;;;12360436;28;20054;-42
2021/04/11 21:36:45;;;;;;;3.38;1.40;;;4.20;99.90;;;;;;12340636;28;20080;-42
2021/04/11 21:42:57;;;;;;;2.00;1.10;;;4.20;99.90;;;;;;12354541;28;20072;-42
2021/04/11 21:49:06;;;;;;;3.15;1.20;;;4.20;99.90;;;;;;12358461;28;20047;-42
2021/04/11 21:55:21;;;;;;;6.13;1.27;;;4.20;99.90;;;;;;12358563;28;20230;-42
2021/04/11 22:01:30;;;;;;;3.03;1.10;;;4.10;99.90;;;;;;12359383;28;20051;-42
2021/04/11 22:07:41;;;;;;;8.30;2.10;;;4.10;99.90;;;;;;12362212;28;20137;-42
2021/04/11 22:14:00;;;;;;;3.38;1.70;;;4.00;99.90;;;;;;12355066;28;20058;-42
2021/04/11 22:20:08;;;;;;;4.53;1.90;;;4.10;99.90;;;;;;12352118;28;20109;-43
2021/04/11 22:26:42;;;;;;;2.90;1.67;;;4.00;99.90;;;;;;12354917;28;20517;-42
2021/04/11 22:32:44;;;;;;;3.67;1.50;;;3.90;99.90;;;;;;12354859;28;20109;-42
2021/04/11 22:38:58;;;;;;;4.82;1.75;;;3.90;99.90;;;;;;12353630;28;20104;-42
2021/04/11 22:45:02;;;;;;;8.03;1.60;;;3.90;99.90;;;;;;12353621;28;20038;-42
2021/04/11 22:51:12;;;;;;;5.85;1.52;;;3.80;99.90;;;;;;12356622;28;20453;-42
2021/04/11 22:57:22;;;;;;;6.18;2.00;;;3.70;99.90;;;;;;12359629;28;20050;-42
2021/04/11 23:03:48;;;;;;;7.47;1.40;;;3.50;99.90;;;;;;12350233;28;20123;-42
2021/04/11 23:09:54;;;;;;;4.78;1.48;;;3.50;99.90;;;;;;12358137;28;20058;-44
2021/04/11 23:16:11;;;;;;;5.05;1.30;;;3.40;99.90;;;;;;12354661;28;20113;-42
2021/04/11 23:22:29;;;;;;;5.35;1.33;;;3.30;99.90;;;;;;12351965;28;20045;-42
2021/04/11 23:28:52;;;;;;;3.92;1.13;;;3.10;99.90;;;;;;12357706;28;20462;-42
2021/04/11 23:35:21;;;;;;;5.80;1.40;;;3.10;99.90;;;;;;12357284;28;21070;-42
2021/04/11 23:41:50;;;;;;;4.53;1.27;;;2.90;99.90;;;;;;12355747;28;20056;-42
2021/04/11 23:48:06;;;;;;;3.38;1.38;;;2.90;99.90;;;;;;12351327;28;20052;-42
2021/04/11 23:54:21;;;;;;;6.50;2.20;;;2.80;99.90;;;;;;12357904;28;20042;-42
